Latest Weather Observations for Coolangatta

IDN60801

Issued at 6:02 am EDT Sunday 21 October 2018 (issued every 10 minutes, with the page automatically refreshed every 10 minutes)

About weather observations | Map of weather stations | Latest weather observations for NSW | Other Formats
Station Details ID: 040717 Name: COOLANGATTA Lat: -28.17 Lon: 153.51 Height: 4.0 m
Data from the previous 72 hours. | See also: Recent months at Coolangatta
Date/Time
EDT
Temp
°C
App
Temp
°C
Dew
Point
°C
Rel
Hum
%
Delta-T
°C
Wind Press
QNH
hPa
Press
MSL
hPa
Rain since
9am
mm
Dir  Spd
km/h
Gust
km/h
Spd
kts
Gust
kts
21/06:00am 19.9 21.2 17.1 84 1.7 WNW 6 9 3 5 1013.9 1013.9 0.0
21/05:30am 20.5 21.3 17.3 82 2.0 NNW 9 13 5 7 1013.9 1013.9 0.0
21/05:00am 20.4 21.0 16.8 80 2.2 NNW 9 13 5 7 1013.8 1013.8 0.0
21/04:30am 20.4 21.6 16.8 80 2.2 NNW 6 9 3 5 1014.2 1014.2 0.0
21/04:00am 20.4 21.4 16.8 80 2.2 NW 7 11 4 6 1014.4 1014.4 0.0
21/03:30am 20.3 21.2 16.7 80 2.2 NW 7 9 4 5 1014.3 1014.3 0.0
21/03:00am 20.4 21.2 16.4 78 2.4 NW 7 11 4 6 1014.4 1014.4 0.0
21/02:30am 20.6 21.0 16.4 77 2.5 NW 9 13 5 7 1014.7 1014.7 0.0
21/02:00am 20.5 20.4 16.9 80 2.2 NW 13 19 7 10 1014.7 1014.7 0.0
21/01:30am 20.2 19.4 17.0 82 1.9 NW 17 20 9 11 1014.7 1014.7 0.0
21/01:00am 19.8 19.7 17.0 84 1.7 NW 13 17 7 9 1014.6 1014.6 0.0
21/12:30am 19.7 20.0 16.9 84 1.7 NW 11 13 6 7 1014.7 1014.7 0.0
21/12:00am 19.8 20.5 17.0 84 1.7 NW 9 13 5 7 1014.9 1014.9 0.0
 
Date/Time
EDT
Temp
°C
App
Temp
°C
Dew
Point
°C
Rel
Hum
%
Delta-T
°C
Wind Press
QNH
hPa
Press
MSL
hPa
Rain since
9am
mm
Dir  Spd
km/h
Gust
km/h
Spd
kts
Gust
kts
20/11:30pm 19.8 20.4 16.8 83 1.8 NW 9 13 5 7 1014.9 1014.9 0.0
20/11:00pm 20.3 20.5 16.7 80 2.2 NW 11 13 6 7 1015.1 1015.1 0.0
20/10:30pm 21.1 21.1 17.1 78 2.4 NW 13 24 7 13 1015.5 1015.5 0.0
20/10:00pm 21.6 19.5 17.2 76 2.7 N 24 30 13 16 1015.6 1015.6 0.0
20/09:30pm 21.8 20.2 17.4 76 2.7 N 22 28 12 15 1015.7 1015.7 0.0
20/09:00pm 21.7 20.0 17.1 75 2.8 N 22 26 12 14 1015.5 1015.5 0.0
20/08:30pm 21.8 20.6 17.4 76 2.7 N 20 26 11 14 1015.3 1015.3 0.0
20/08:00pm 21.9 20.5 17.1 74 2.9 N 20 26 11 14 1015.2 1015.2 0.0
20/07:30pm 22.4 21.0 16.9 71 3.4 N 20 26 11 14 1014.8 1014.8 0.0
20/07:00pm 22.5 21.1 17.0 71 3.4 N 20 26 11 14 1014.7 1014.7 0.0
20/06:30pm 22.6 21.2 17.1 71 3.4 N 20 28 11 15 1014.2 1014.2 0.0
20/06:00pm 22.7 21.2 16.7 69 3.7 N 20 26 11 14 1013.9 1013.9 0.0
20/05:30pm 23.3 21.8 16.8 67 4.0 N 20 26 11 14 1013.8 1013.8 0.0
20/05:00pm 23.5 21.3 16.8 66 4.1 N 24 26 13 14 1014.1 1014.1 0.0
20/04:30pm 23.6 21.8 16.9 66 4.1 NNE 22 30 12 16 1014.2 1014.2 0.0
20/04:00pm 24.2 22.3 16.7 63 4.6 NNE 22 28 12 15 1014.4 1014.4 0.0
20/03:30pm 24.0 22.0 16.5 63 4.6 NNE 22 28 12 15 1014.7 1014.7 0.0
20/03:00pm 24.2 22.3 16.7 63 4.6 NNE 22 28 12 15 1015.1 1015.1 0.0
20/02:30pm 24.4 22.6 16.9 63 4.6 NNE 22 28 12 15 1015.7 1015.7 0.0
20/02:00pm 24.2 22.6 16.5 62 4.7 NNE 20 26 11 14 1016.1 1016.1 0.0
20/01:30pm 24.0 22.3 16.3 62 4.7 NNE 20 26 11 14 1016.2 1016.2 0.0
20/01:00pm 24.7 23.2 17.7 65 4.4 NNE 22 28 12 15 1016.6 1016.6 0.0
20/12:30pm 23.8 22.4 16.6 64 4.4 NNE 19 24 10 13 1016.9 1016.9 0.0
20/12:00pm 23.6 22.1 16.4 64 4.4 NNE 19 24 10 13 1017.2 1017.2 0.0
20/11:30am 24.2 23.1 17.2 65 4.3 NNE 19 24 10 13 1017.6 1017.6 0.0
20/11:00am 23.6 22.5 16.4 64 4.4 NNE 17 24 9 13 1018.0 1018.0 0.0
20/10:30am 23.2 22.0 16.0 64 4.4 N 17 22 9 12 1018.3 1018.3 0.0
20/10:00am 23.2 22.4 16.0 64 4.3 NNE 15 20 8 11 1018.6 1018.6 0.0
20/09:30am 22.9 22.4 16.0 65 4.2 N 13 19 7 10 1018.7 1018.7 0.0
20/09:00am 23.2 23.4 16.7 67 4.0 N 11 17 6 9 1018.6 1018.6 0.0
20/08:30am 21.7 22.6 16.2 71 3.3 W 6 11 3 6 1018.3 1018.3 0.0
20/08:00am 19.7 22.3 17.5 87 1.3 CALM 0 0 0 0 1018.3 1018.3 0.0
20/07:30am 18.2 20.8 17.6 96 0.4 CALM 0 0 0 0 1018.1 1018.1 0.0
20/07:00am 17.5 19.9 17.0 97 0.3 CALM 0 0 0 0 1018.0 1018.0 0.0
20/06:30am 17.0 19.2 16.4 96 0.4 CALM 0 2 0 1 1017.7 1017.7 0.0
20/06:00am 16.8 18.8 16.0 95 0.5 CALM 0 0 0 0 1017.6 1017.6 0.0
20/05:30am 16.9 18.6 16.1 95 0.5 WSW 2 6 1 3 1017.5 1017.5 0.0
20/05:00am 17.2 19.1 16.6 96 0.4 WSW 2 7 1 4 1017.3 1017.3 0.0
20/04:30am 17.2 19.4 16.4 95 0.5 CALM 0 0 0 0 1017.3 1017.3 0.0
20/04:00am 17.2 19.4 16.4 95 0.5 CALM 0 0 0 0 1017.3 1017.3 0.0
20/03:30am 17.2 19.4 16.4 95 0.5 CALM 0 0 0 0 1017.3 1017.3 0.0
20/03:00am 17.2 19.2 16.1 93 0.6 CALM 0 0 0 0 1017.5 1017.5 0.0
20/02:30am 17.6 19.8 16.6 94 0.6 CALM 0 2 0 1 1017.8 1017.8 0.0
20/02:00am 17.8 20.1 16.7 93 0.7 CALM 0 0 0 0 1018.1 1018.1 0.0
20/01:30am 18.2 20.1 16.7 91 0.9 WSW 2 6 1 3 1018.5 1018.5 0.0
20/01:00am 18.6 20.4 17.3 92 0.8 WSW 4 9 2 5 1018.9 1018.9 0.0
20/12:30am 18.6 19.8 16.8 89 1.1 W 6 7 3 4 1019.1 1019.1 0.0
20/12:00am 19.5 20.6 16.7 84 1.7 WNW 6 7 3 4 1019.2 1019.2 0.0
 
Date/Time
EDT
Temp
°C
App
Temp
°C
Dew
Point
°C
Rel
Hum
%
Delta-T
°C
Wind Press
QNH
hPa
Press
MSL
hPa
Rain since
9am
mm
Dir  Spd
km/h
Gust
km/h
Spd
kts
Gust
kts
19/11:30pm 21.0 20.5 15.8 72 3.1 NNE 13 17 7 9 1019.3 1019.3 0.0
19/11:00pm 21.3 21.2 16.0 72 3.2 NE 11 15 6 8 1019.5 1019.5 0.0
19/10:30pm 21.5 21.1 16.2 72 3.2 NE 13 17 7 9 1019.6 1019.6 0.0
19/10:00pm 21.5 21.4 16.0 71 3.3 NE 11 15 6 8 1019.6 1019.6 0.0
19/09:30pm 21.6 21.2 16.3 72 3.2 NE 13 17 7 9 1019.5 1019.5 0.0
19/09:00pm 21.4 21.0 16.1 72 3.2 NE 13 19 7 10 1019.4 1019.4 0.0
19/08:30pm 21.6 20.9 15.4 68 3.7 NE 13 17 7 9 1019.1 1019.1 0.0
19/08:00pm 21.6 21.5 16.1 71 3.3 ENE 11 15 6 8 1019.0 1019.0 0.0
19/07:30pm 21.4 21.0 16.1 72 3.2 ENE 13 15 7 8 1018.6 1018.6 0.0
19/07:00pm 21.3 20.7 15.6 70 3.4 NE 13 17 7 9 1018.1 1018.1 0.0
19/06:30pm 21.5 20.8 15.3 68 3.7 ENE 13 17 7 9 1017.8 1017.8 0.0
19/06:00pm 21.8 21.3 15.9 69 3.5 NE 13 17 7 9 1017.6 1017.6 0.0
19/05:30pm 22.1 21.1 15.7 67 3.8 NE 15 19 8 10 1017.4 1017.4 0.0
19/05:00pm 23.1 21.9 16.2 65 4.2 NE 17 20 9 11 1017.2 1017.2 0.0
19/04:30pm 22.8 21.3 15.4 63 4.4 NE 17 20 9 11 1017.2 1017.2 0.0
19/04:00pm 23.5 22.8 16.3 64 4.4 ENE 15 20 8 11 1017.3 1017.3 0.0
19/03:30pm 23.2 21.9 15.8 63 4.5 ENE 17 20 9 11 1017.5 1017.5 0.0
19/03:00pm 23.9 22.6 15.7 60 4.9 NE 17 20 9 11 1017.8 1017.8 0.0
19/02:30pm 23.6 23.1 15.9 62 4.7 NE 13 20 7 11 1018.1 1018.1 0.0
19/02:00pm 23.2 22.0 16.0 64 4.3 NE 17 20 9 11 1018.5 1018.5 0.0
19/01:30pm 23.6 22.3 15.9 62 4.7 ENE 17 24 9 13 1018.8 1018.8 0.0
19/01:00pm 24.0 22.5 16.3 62 4.7 NE 19 22 10 12 1019.0 1019.0 0.0
19/12:30pm 23.7 22.3 16.5 64 4.4 NE 19 24 10 13 1019.4 1019.4 0.0
19/12:00pm 23.7 22.5 16.0 62 4.7 ENE 17 22 9 12 1019.6 1019.6 0.0
19/11:30am 23.3 22.1 16.1 64 4.4 NE 17 24 9 13 1019.9 1019.9 0.0
19/11:00am 23.7 22.9 16.0 62 4.7 NE 15 20 8 11 1020.2 1020.2 0.0
19/10:30am 23.5 22.8 16.3 64 4.4 ENE 15 22 8 12 1020.5 1020.5 0.0
19/10:00am 23.0 22.0 15.6 63 4.4 NE 15 20 8 11 1020.7 1020.7 0.0
19/09:30am 23.0 22.6 16.1 65 4.2 NE 13 19 7 10 1020.8 1020.8 0.0
19/09:00am 22.9 22.9 16.2 66 4.1 NE 11 15 6 8 1020.8 1020.8 0.0
19/08:30am 20.3 21.8 17.5 84 1.7 SSW 6 7 3 4 1020.9 1020.9 0.0
19/08:00am 19.8 22.0 17.4 86 1.5 WSW 2 7 1 4 1020.7 1020.7 0.0
19/07:30am 19.4 22.0 17.4 88 1.2 CALM 0 6 0 3 1020.4 1020.4 0.0
19/07:00am 19.0 20.5 17.7 92 0.8 SW 6 7 3 4 1020.2 1020.2 0.0
19/06:30am 18.2 19.0 17.4 95 0.5 SW 9 11 5 6 1019.8 1019.8 0.0
19/06:00am 18.1 18.8 17.1 94 0.6 WSW 9 9 5 5 1019.5 1019.5 0.0
19/05:30am 18.3 19.4 17.0 92 0.8 WSW 7 11 4 6 1019.1 1019.1 0.0
19/05:00am 18.8 20.1 17.1 90 1.0 SW 6 13 3 7 1019.0 1019.0 0.0
19/04:30am 18.9 20.5 17.0 89 1.1 WSW 4 7 2 4 1018.9 1018.9 0.0
19/04:00am 20.2 20.6 16.2 78 2.4 ENE 9 11 5 6 1018.6 1018.6 0.0
19/03:30am 20.1 19.7 16.1 78 2.4 ENE 13 17 7 9 1018.4 1018.4 0.0
19/03:00am 20.4 19.6 16.2 77 2.5 ENE 15 19 8 10 1018.7 1018.7 0.0
19/02:30am 20.5 19.8 16.5 78 2.4 ENE 15 20 8 11 1019.0 1019.0 0.0
19/02:00am 20.7 19.9 16.1 75 2.8 ENE 15 20 8 11 1019.3 1019.3 0.0
19/01:30am 20.6 19.5 16.4 77 2.5 ENE 17 20 9 11 1019.3 1019.3 0.0
19/01:00am 20.6 20.0 16.6 78 2.4 ENE 15 20 8 11 1019.7 1019.7 0.0
19/12:30am 20.8 20.1 16.4 76 2.7 ENE 15 19 8 10 1020.3 1020.3 0.0
19/12:00am 21.1 20.7 17.1 78 2.4 ENE 15 19 8 10 1020.7 1020.7 0.0
 
Date/Time
EDT
Temp
°C
App
Temp
°C
Dew
Point
°C
Rel
Hum
%
Delta-T
°C
Wind Press
QNH
hPa
Press
MSL
hPa
Rain since
9am
mm
Dir  Spd
km/h
Gust
km/h
Spd
kts
Gust
kts
18/11:30pm 21.1 20.1 16.7 76 2.7 ENE 17 20 9 11 1020.9 1020.9 0.0
18/11:00pm 21.3 20.0 16.9 76 2.7 ENE 19 22 10 12 1021.1 1021.1 0.0
18/10:30pm 21.2 20.3 16.8 76 2.7 ENE 17 20 9 11 1021.1 1021.1 0.0
18/10:00pm 21.3 20.3 16.7 75 2.8 ENE 17 22 9 12 1021.0 1021.0 0.0
18/09:30pm 21.2 20.7 17.0 77 2.6 ENE 15 20 8 11 1020.9 1020.9 0.0
18/09:00pm 20.9 20.4 16.9 78 2.4 ENE 15 20 8 11 1020.6 1020.6 0.0
18/08:30pm 21.4 20.9 17.0 76 2.7 ENE 15 17 8 9 1020.4 1020.4 0.0
18/08:00pm 21.3 20.8 16.9 76 2.7 ENE 15 19 8 10 1020.1 1020.1 0.0
18/07:30pm 21.3 20.4 16.9 76 2.7 ENE 17 20 9 11 1019.4 1019.4 0.0
18/07:00pm 21.5 20.8 17.3 77 2.6 ENE 17 24 9 13 1019.0 1019.0 0.0
18/06:30pm 21.7 20.5 17.1 75 2.8 ENE 19 24 10 13 1018.6 1018.6 0.0
18/06:00pm 22.0 20.9 17.2 74 2.9 ENE 19 22 10 12 1018.4 1018.4 0.0
18/05:30pm 22.5 21.6 17.8 75 2.9 ENE 19 24 10 13 1018.1 1018.1 0.0
18/05:00pm 22.2 20.7 17.6 75 2.8 ENE 22 28 12 15 1017.9 1017.9 0.0
18/04:30pm 22.7 20.8 17.6 73 3.2 ENE 24 30 13 16 1017.7 1017.7 0.0
18/04:00pm 22.9 20.8 17.1 70 3.6 ENE 24 32 13 17 1017.5 1017.5 0.0
18/03:30pm 23.6 22.4 18.5 73 3.2 ENE 22 30 12 16 1017.6 1017.6 0.0
18/03:00pm 23.2 21.5 18.1 73 3.2 ENE 24 30 13 16 1017.8 1017.8 0.0
18/02:30pm 24.2 22.7 18.6 71 3.5 ENE 24 30 13 16 1018.1 1018.1 0.0
18/02:00pm 23.1 21.7 18.0 73 3.2 E 22 28 12 15 1018.5 1018.5 0.0
18/01:30pm 22.6 20.7 17.7 74 3.0 ENE 24 30 13 16 1018.7 1018.7 0.0
18/01:00pm 23.1 21.0 18.0 73 3.2 ENE 26 32 14 17 1019.0 1019.0 0.0
18/12:30pm 22.9 21.3 18.4 76 2.8 ENE 24 30 13 16 1019.1 1019.1 0.0
18/12:00pm 23.1 21.9 18.4 75 2.9 ENE 22 28 12 15 1019.3 1019.3 0.0
18/11:30am 23.6 22.4 18.5 73 3.2 ENE 22 28 12 15 1019.5 1019.5 0.0
18/11:00am 22.6 21.7 18.2 76 2.7 NE 20 26 11 14 1019.6 1019.6 0.0
18/10:30am 22.8 22.3 18.6 77 2.6 NE 19 26 10 14 1019.6 1019.6 0.0
18/10:00am 22.2 21.8 18.8 81 2.1 NE 19 22 10 12 1019.5 1019.5 2.4
18/09:30am 21.3 20.8 19.2 88 1.3 ENE 20 26 11 14 1019.4 1019.4 2.4
18/09:21am 21.5 20.8 19.4 88 1.3 ENE 22 26 12 14 1019.3 1019.3 2.4
18/09:01am 21.4 20.4 18.8 85 1.6 ENE 22 28 12 15 1019.2 1019.2 1.8
18/09:00am 21.4 20.3 18.6 84 1.8 ENE 22 28 12 15 1019.2 1019.2 1.8
18/08:30am 22.0 21.8 18.4 80 2.3 ENE 17 24 9 13 1019.1 1019.1 1.6
18/08:00am 21.7 21.0 18.3 81 2.1 ENE 19 24 10 13 1018.9 1018.9 1.6
18/07:30am 21.4 20.9 18.6 84 1.8 ENE 19 24 10 13 1018.5 1018.5 1.6

Other Formats:

Comma delimited format used in spreadsheet applications
http://www.bom.gov.au/fwo/IDN60801/IDN60801.94592.axf

JavaScript Object Notation format (JSON) in row-major order
http://www.bom.gov.au/fwo/IDN60801/IDN60801.94592.json